Time;durP1;ratioP1;P1;durP2;ratioP2;P2;SDS_P1;SDS_P2;PMS_P1;PMS_P2;Temp;Humidity;BMP_temperature;BMP_pressure;BME280_temperature;BME280_humidity;BME280_pressure;Samples;Min_cycle;Max_cycle;Signal;HPM_P1;HPM_P2
2021/12/27 00:00:54;;;;;;;11.30;5.80;;;5.20;91.10;;;;;;4879065;29;20039;-76
2021/12/27 00:03:19;;;;;;;10.13;6.17;;;5.20;91.40;;;;;;4880827;29;20041;-76
2021/12/27 00:05:45;;;;;;;8.40;5.20;;;5.20;91.20;;;;;;4882457;29;20185;-76
2021/12/27 00:08:11;;;;;;;7.90;5.20;;;5.10;91.30;;;;;;4882631;29;20033;-76
2021/12/27 00:10:36;;;;;;;7.20;5.17;;;5.10;91.40;;;;;;4882774;29;20044;-76
2021/12/27 00:13:04;;;;;;;7.07;4.40;;;5.10;91.20;;;;;;4882628;29;20025;-77
2021/12/27 00:15:30;;;;;;;9.43;5.00;;;5.00;91.20;;;;;;4882649;29;20029;-76
2021/12/27 00:17:56;;;;;;;9.10;5.90;;;5.00;91.30;;;;;;4882796;29;20120;-76
2021/12/27 00:20:22;;;;;;;7.07;4.67;;;5.10;91.60;;;;;;4881303;29;20395;-76
2021/12/27 00:22:49;;;;;;;8.17;5.10;;;5.10;91.40;;;;;;4882423;29;20068;-76
2021/12/27 00:25:16;;;;;;;10.00;5.27;;;5.10;91.50;;;;;;4882503;29;20025;-76
2021/12/27 00:27:42;;;;;;;8.90;5.33;;;5.10;91.00;;;;;;4882482;29;20044;-76
2021/12/27 00:30:09;;;;;;;8.20;4.60;;;5.20;91.30;;;;;;4882232;29;20061;-76
2021/12/27 00:32:37;;;;;;;7.33;5.20;;;5.20;91.20;;;;;;4882435;29;20112;-75
2021/12/27 00:35:07;;;;;;;10.07;6.20;;;5.20;90.70;;;;;;4882489;29;20041;-76
2021/12/27 00:37:34;;;;;;;11.07;6.80;;;5.10;90.70;;;;;;4882372;29;20164;-76
2021/12/27 00:40:00;;;;;;;12.63;6.93;;;5.10;90.80;;;;;;4882195;29;20040;-76
2021/12/27 00:42:26;;;;;;;11.90;7.50;;;5.10;90.80;;;;;;4881897;29;20520;-75
2021/12/27 00:44:51;;;;;;;9.87;6.93;;;5.10;91.00;;;;;;4881863;29;20029;-76
2021/12/27 00:47:18;;;;;;;12.17;7.37;;;5.10;90.90;;;;;;4882316;29;20495;-76
2021/12/27 00:49:44;;;;;;;13.60;8.40;;;5.00;90.90;;;;;;4882211;29;20114;-76
2021/12/27 00:52:10;;;;;;;11.23;7.40;;;5.10;90.70;;;;;;4881896;29;20479;-75
2021/12/27 00:54:35;;;;;;;11.33;6.40;;;5.10;90.30;;;;;;4881651;29;20076;-76
2021/12/27 00:57:01;;;;;;;11.40;6.23;;;5.00;90.50;;;;;;4881702;29;20371;-76
2021/12/27 00:59:27;;;;;;;9.87;6.50;;;5.10;90.20;;;;;;4880557;29;20029;-76
2021/12/27 01:01:53;;;;;;;9.47;5.73;;;4.90;90.20;;;;;;4881637;29;20048;-76
2021/12/27 01:04:18;;;;;;;10.93;5.50;;;4.90;90.30;;;;;;4881672;29;20029;-75
2021/12/27 01:06:45;;;;;;;9.50;6.03;;;4.80;90.30;;;;;;4881563;29;20439;-76
2021/12/27 01:09:25;;;;;;;9.30;5.67;;;4.70;90.40;;;;;;4881957;29;20385;-76
2021/12/27 01:12:32;;;;;;;8.80;5.73;;;4.70;90.70;;;;;;4880328;29;20471;-76
2021/12/27 01:14:55;;;;;;;8.60;5.60;;;4.50;90.90;;;;;;4878953;29;20064;-76
2021/12/27 01:17:21;;;;;;;10.10;5.83;;;4.40;91.20;;;;;;4881732;29;20108;-76
2021/12/27 01:19:46;;;;;;;9.73;6.47;;;4.40;91.30;;;;;;4881740;29;20569;-75
2021/12/27 01:22:12;;;;;;;9.07;6.43;;;4.30;91.50;;;;;;4881235;29;20112;-75
2021/12/27 01:24:38;;;;;;;8.27;5.93;;;4.30;91.80;;;;;;4881491;29;20458;-76
2021/12/27 01:27:04;;;;;;;8.53;5.77;;;4.20;91.50;;;;;;4881307;29;20033;-76
2021/12/27 01:29:29;;;;;;;9.90;6.10;;;4.20;91.90;;;;;;4881435;29;20029;-76
2021/12/27 01:31:55;;;;;;;7.57;5.13;;;4.20;92.10;;;;;;4881148;29;20029;-76
2021/12/27 01:34:23;;;;;;;8.27;5.10;;;4.20;92.10;;;;;;4880956;29;20049;-76
2021/12/27 01:36:49;;;;;;;6.97;4.40;;;4.20;92.00;;;;;;4881246;29;20025;-75
2021/12/27 01:39:15;;;;;;;7.07;4.30;;;4.20;92.00;;;;;;4881088;29;20145;-75
2021/12/27 01:41:40;;;;;;;7.93;4.80;;;4.20;92.50;;;;;;4881238;29;20116;-76
2021/12/27 01:44:06;;;;;;;5.80;4.27;;;4.20;92.40;;;;;;4881218;29;20104;-75
2021/12/27 01:46:32;;;;;;;6.47;4.10;;;4.20;92.30;;;;;;4881152;29;20053;-75
2021/12/27 01:48:59;;;;;;;6.23;3.63;;;4.20;92.50;;;;;;4881260;29;20036;-76
2021/12/27 01:51:27;;;;;;;6.83;4.40;;;4.20;92.30;;;;;;4880972;29;20185;-76
2021/12/27 01:53:54;;;;;;;5.40;3.23;;;4.20;92.30;;;;;;4880809;29;20455;-75
2021/12/27 01:56:23;;;;;;;4.20;3.07;;;4.20;91.80;;;;;;4895026;29;20064;-76
2021/12/27 01:58:51;;;;;;;5.53;3.27;;;4.20;92.20;;;;;;4878645;29;20032;-76
2021/12/27 02:01:18;;;;;;;4.40;3.20;;;4.20;92.20;;;;;;4877726;29;20126;-76
2021/12/27 02:03:44;;;;;;;12.30;3.53;;;4.20;92.40;;;;;;4878053;29;20033;-76
2021/12/27 02:06:12;;;;;;;5.17;3.43;;;4.10;92.40;;;;;;4880439;29;20418;-76
2021/12/27 02:08:41;;;;;;;6.30;3.97;;;4.20;92.70;;;;;;4880702;29;20025;-76
2021/12/27 02:11:08;;;;;;;6.33;4.03;;;4.20;92.60;;;;;;4880567;29;20033;-76
2021/12/27 02:13:34;;;;;;;6.30;4.00;;;4.20;92.50;;;;;;4894322;29;20157;-76
2021/12/27 02:16:00;;;;;;;6.57;4.53;;;4.20;92.60;;;;;;4880488;29;20037;-76
2021/12/27 02:18:25;;;;;;;6.43;4.20;;;4.30;92.40;;;;;;4880459;29;20044;-76
2021/12/27 02:20:51;;;;;;;5.30;3.83;;;4.30;92.40;;;;;;4880113;29;20033;-75
2021/12/27 02:23:18;;;;;;;7.03;4.03;;;4.30;92.30;;;;;;4880294;29;20043;-75
2021/12/27 02:25:49;;;;;;;6.50;4.30;;;4.20;92.00;;;;;;4879891;29;20037;-76
2021/12/27 02:28:15;;;;;;;5.30;3.67;;;4.20;92.30;;;;;;4879998;29;20028;-76
2021/12/27 02:30:43;;;;;;;6.67;3.70;;;4.20;92.20;;;;;;4880071;29;20029;-75
2021/12/27 02:33:10;;;;;;;4.73;3.27;;;4.30;92.20;;;;;;4879830;29;20025;-76
2021/12/27 02:35:39;;;;;;;4.07;3.00;;;4.30;92.20;;;;;;4879956;29;20037;-75
2021/12/27 02:38:07;;;;;;;5.23;3.20;;;4.30;92.10;;;;;;4880052;29;20029;-75
2021/12/27 02:40:34;;;;;;;3.90;3.33;;;4.20;91.90;;;;;;4879502;29;20036;-76
2021/12/27 02:43:05;;;;;;;6.40;3.70;;;4.30;92.10;;;;;;4879702;29;20497;-76
2021/12/27 02:45:35;;;;;;;5.63;3.93;;;4.40;91.70;;;;;;4880002;29;20065;-76
2021/12/27 02:48:01;;;;;;;5.97;3.60;;;4.30;91.60;;;;;;4879907;29;20554;-75
2021/12/27 02:50:28;;;;;;;7.27;3.30;;;4.30;91.30;;;;;;4879781;29;20115;-75
2021/12/27 02:52:54;;;;;;;5.80;3.33;;;4.30;91.40;;;;;;4879670;29;20064;-76
2021/12/27 02:55:20;;;;;;;6.47;3.30;;;4.30;91.80;;;;;;4879417;29;20088;-75
2021/12/27 02:57:47;;;;;;;4.53;2.97;;;4.30;92.00;;;;;;4878385;29;20509;-75
2021/12/27 03:00:17;;;;;;;4.50;3.00;;;4.40;91.70;;;;;;4879719;29;20064;-76
2021/12/27 03:02:45;;;;;;;5.47;2.90;;;4.40;91.50;;;;;;4879562;29;20136;-76
2021/12/27 03:05:12;;;;;;;5.07;3.13;;;4.30;91.50;;;;;;4879449;29;20060;-76
2021/12/27 03:07:39;;;;;;;5.77;3.27;;;4.30;91.60;;;;;;4879600;29;20099;-76
2021/12/27 03:10:07;;;;;;;5.97;3.33;;;4.30;91.50;;;;;;4879502;29;20068;-76
2021/12/27 03:12:33;;;;;;;4.60;3.03;;;4.30;91.60;;;;;;4879714;29;20038;-76
2021/12/27 03:14:58;;;;;;;4.67;3.20;;;4.30;91.70;;;;;;4879622;29;20161;-76
2021/12/27 03:17:24;;;;;;;3.70;2.43;;;4.20;91.90;;;;;;4879811;29;20036;-76
2021/12/27 03:19:50;;;;;;;6.93;2.83;;;4.20;92.20;;;;;;4879519;29;20037;-76
2021/12/27 03:22:15;;;;;;;4.83;2.50;;;4.20;92.50;;;;;;4879497;29;20040;-76
2021/12/27 03:24:41;;;;;;;7.07;2.90;;;4.20;92.50;;;;;;4879401;29;20036;-76
2021/12/27 03:27:06;;;;;;;4.10;2.83;;;4.20;92.50;;;;;;4879449;29;20453;-76
2021/12/27 03:29:32;;;;;;;5.47;3.27;;;4.20;92.20;;;;;;4879376;29;20493;-76
2021/12/27 03:31:58;;;;;;;5.53;3.80;;;4.10;91.50;;;;;;4878385;29;20056;-76
2021/12/27 03:34:24;;;;;;;5.57;3.40;;;4.00;91.60;;;;;;4879119;29;20394;-76
2021/12/27 03:36:50;;;;;;;6.47;4.40;;;4.00;91.70;;;;;;4879355;29;20029;-75
2021/12/27 03:39:15;;;;;;;9.33;5.87;;;3.90;92.30;;;;;;4882945;29;20037;-76
2021/12/27 03:41:41;;;;;;;10.70;5.50;;;3.90;92.00;;;;;;4897157;29;20045;-75
2021/12/27 03:44:07;;;;;;;9.37;5.70;;;3.80;92.10;;;;;;4883287;29;20045;-75
2021/12/27 03:46:33;;;;;;;7.67;4.53;;;3.80;92.60;;;;;;4883322;29;20033;-76
2021/12/27 03:48:59;;;;;;;11.13;5.30;;;3.80;92.80;;;;;;4883067;29;20055;-76
2021/12/27 03:51:25;;;;;;;12.30;5.47;;;3.80;92.80;;;;;;4883117;29;20078;-76
2021/12/27 03:53:51;;;;;;;5.57;3.50;;;3.80;92.90;;;;;;4883054;29;20394;-76
2021/12/27 03:56:17;;;;;;;7.80;4.63;;;3.80;92.80;;;;;;4882719;29;20096;-75
2021/12/27 03:58:56;;;;;;;9.93;4.40;;;3.90;92.50;;;;;;4882924;29;20032;-76
2021/12/27 04:01:24;;;;;;;8.70;4.60;;;3.80;92.20;;;;;;4883191;29;20033;-76
2021/12/27 04:03:52;;;;;;;6.83;3.63;;;3.70;92.50;;;;;;4882906;29;20025;-75
2021/12/27 04:06:20;;;;;;;5.97;3.60;;;3.70;93.00;;;;;;4881789;29;20470;-75
2021/12/27 04:08:46;;;;;;;5.67;3.50;;;3.70;93.00;;;;;;4896986;29;20398;-76
2021/12/27 04:11:13;;;;;;;5.63;3.70;;;3.70;92.90;;;;;;4882696;29;20025;-76
2021/12/27 04:13:39;;;;;;;5.60;3.97;;;3.80;93.10;;;;;;4882653;29;20033;-75
2021/12/27 04:16:05;;;;;;;5.27;3.40;;;3.80;92.60;;;;;;4882757;29;20029;-76
2021/12/27 04:18:31;;;;;;;5.80;3.50;;;3.70;92.90;;;;;;4882567;29;20564;-76
2021/12/27 04:20:57;;;;;;;6.20;3.77;;;3.70;93.00;;;;;;4882789;29;20029;-76
2021/12/27 04:23:22;;;;;;;5.47;3.43;;;3.70;92.90;;;;;;4882368;29;20060;-75
2021/12/27 04:25:48;;;;;;;8.53;3.60;;;3.80;92.40;;;;;;4882479;29;20029;-76
2021/12/27 04:28:15;;;;;;;4.87;3.30;;;3.70;92.50;;;;;;4882427;29;20036;-76
2021/12/27 04:30:41;;;;;;;5.63;3.43;;;3.70;92.70;;;;;;4882650;29;20022;-75
2021/12/27 04:33:06;;;;;;;5.27;3.50;;;3.70;92.40;;;;;;4882333;29;20029;-76
2021/12/27 04:35:32;;;;;;;5.43;3.30;;;3.70;92.80;;;;;;4882567;29;20524;-76
2021/12/27 04:37:59;;;;;;;6.63;3.47;;;3.70;92.50;;;;;;4882261;29;20029;-76
2021/12/27 04:40:27;;;;;;;5.70;3.27;;;3.70;92.60;;;;;;4882139;29;20077;-75
2021/12/27 04:42:59;;;;;;;5.97;3.30;;;3.80;92.40;;;;;;4882048;29;20045;-75
2021/12/27 04:45:26;;;;;;;5.90;3.90;;;3.80;92.20;;;;;;4882132;29;20098;-75
2021/12/27 04:47:51;;;;;;;7.30;4.00;;;3.80;92.20;;;;;;4882271;29;20033;-76
2021/12/27 04:50:17;;;;;;;5.80;3.70;;;3.70;92.10;;;;;;4880858;29;20364;-75
2021/12/27 04:52:45;;;;;;;6.53;4.30;;;3.70;91.90;;;;;;4882122;29;20457;-75
2021/12/27 04:55:10;;;;;;;6.40;4.23;;;3.60;91.90;;;;;;4881632;29;20077;-75
2021/12/27 04:57:36;;;;;;;7.87;4.83;;;3.60;92.40;;;;;;4881866;29;20025;-75
2021/12/27 05:00:06;;;;;;;11.23;4.60;;;3.60;92.20;;;;;;4881875;29;20036;-76
2021/12/27 05:02:31;;;;;;;6.20;4.10;;;3.60;92.20;;;;;;4881639;29;20047;-75
2021/12/27 05:04:57;;;;;;;6.50;4.70;;;3.60;92.10;;;;;;4882073;29;20025;-76
2021/12/27 05:07:22;;;;;;;7.03;4.73;;;3.70;91.90;;;;;;4881652;29;20029;-75
2021/12/27 05:09:48;;;;;;;8.83;4.83;;;3.70;91.90;;;;;;4881837;29;20526;-76
2021/12/27 05:12:14;;;;;;;10.20;5.10;;;3.70;91.70;;;;;;4881819;29;20040;-76
2021/12/27 05:14:39;;;;;;;7.60;4.77;;;3.70;91.60;;;;;;4880178;29;20117;-76
2021/12/27 05:17:05;;;;;;;8.50;4.70;;;3.70;91.60;;;;;;4880468;29;20025;-76
2021/12/27 05:19:31;;;;;;;7.90;4.80;;;3.60;91.80;;;;;;4881474;29;20032;-76
2021/12/27 05:21:56;;;;;;;7.90;4.87;;;3.60;91.80;;;;;;4881173;29;20040;-76
2021/12/27 05:24:23;;;;;;;7.60;4.80;;;3.50;91.90;;;;;;4881449;29;20104;-75
2021/12/27 05:26:49;;;;;;;7.13;5.87;;;3.40;92.00;;;;;;4881670;29;20378;-75
2021/12/27 05:29:19;;;;;;;8.50;4.30;;;3.50;92.40;;;;;;4881199;29;20073;-76
2021/12/27 05:31:45;;;;;;;7.67;5.37;;;3.50;92.60;;;;;;4881137;29;20093;-76
2021/12/27 05:34:11;;;;;;;8.73;6.50;;;3.50;92.60;;;;;;4881246;29;20429;-76
2021/12/27 05:36:37;;;;;;;8.23;6.10;;;3.50;92.50;;;;;;4881357;29;20033;-75
2021/12/27 05:39:04;;;;;;;9.77;7.27;;;3.50;92.40;;;;;;4881312;29;20029;-76
2021/12/27 05:41:29;;;;;;;9.10;6.17;;;3.60;92.10;;;;;;4880884;29;20041;-76
2021/12/27 05:43:55;;;;;;;8.70;5.63;;;3.60;91.90;;;;;;4881065;29;20100;-76
2021/12/27 05:46:21;;;;;;;6.93;4.70;;;3.60;92.10;;;;;;4881013;29;20036;-76
2021/12/27 05:48:46;;;;;;;6.43;4.57;;;3.50;92.20;;;;;;4881017;29;20036;-76
2021/12/27 05:51:12;;;;;;;7.10;4.80;;;3.60;92.40;;;;;;4881153;29;20033;-76
2021/12/27 05:53:38;;;;;;;5.87;4.00;;;3.50;92.40;;;;;;4880641;29;20033;-76
2021/12/27 05:56:04;;;;;;;6.93;3.93;;;3.60;92.30;;;;;;4880642;29;20056;-75
2021/12/27 05:58:29;;;;;;;7.90;4.27;;;3.70;92.20;;;;;;4880705;29;20037;-75
2021/12/27 06:00:56;;;;;;;5.53;3.90;;;3.70;92.00;;;;;;4880482;29;20033;-76
2021/12/27 06:03:22;;;;;;;9.50;5.37;;;3.80;91.70;;;;;;4880482;29;20375;-75
2021/12/27 06:05:47;;;;;;;8.03;5.33;;;3.70;91.70;;;;;;4880624;29;20104;-76
2021/12/27 06:08:13;;;;;;;9.47;5.60;;;3.70;91.70;;;;;;4880544;29;20103;-75
2021/12/27 06:10:39;;;;;;;8.70;5.73;;;3.70;91.70;;;;;;4880706;29;20478;-75
2021/12/27 06:13:04;;;;;;;9.30;5.13;;;3.60;91.90;;;;;;4880591;29;20053;-75
2021/12/27 06:15:30;;;;;;;8.53;5.50;;;3.60;92.20;;;;;;4880622;29;20033;-75
2021/12/27 06:17:56;;;;;;;7.60;5.30;;;3.50;92.20;;;;;;4880622;29;20081;-76
2021/12/27 06:20:21;;;;;;;8.57;5.77;;;3.50;92.40;;;;;;4880370;29;20064;-76
2021/12/27 06:22:53;;;;;;;9.77;6.87;;;3.60;92.30;;;;;;4880105;29;20069;-75
2021/12/27 06:25:19;;;;;;;10.73;6.63;;;3.70;91.90;;;;;;4880583;29;20044;-76
2021/12/27 06:27:45;;;;;;;7.67;5.77;;;3.70;91.60;;;;;;4880087;29;20482;-76
2021/12/27 06:30:13;;;;;;;10.23;6.10;;;3.70;91.40;;;;;;4880057;29;20068;-76
2021/12/27 06:32:39;;;;;;;8.43;5.13;;;3.60;91.40;;;;;;4879743;29;20028;-75
2021/12/27 06:35:06;;;;;;;7.00;4.53;;;3.50;91.70;;;;;;4880112;29;20056;-76
2021/12/27 06:37:32;;;;;;;7.57;5.13;;;3.50;91.90;;;;;;4880152;29;20052;-76
2021/12/27 06:39:58;;;;;;;7.90;4.83;;;3.50;91.60;;;;;;4880276;29;20063;-76
2021/12/27 06:42:24;;;;;;;9.60;6.93;;;3.40;91.60;;;;;;4879818;29;20066;-76
2021/12/27 06:44:50;;;;;;;9.70;7.27;;;3.30;91.90;;;;;;4879580;29;20063;-76
2021/12/27 06:47:15;;;;;;;10.40;5.97;;;3.20;92.00;;;;;;4879834;29;20498;-76
2021/12/27 06:49:42;;;;;;;8.83;6.20;;;3.20;92.30;;;;;;4880021;29;20036;-77
2021/12/27 06:52:08;;;;;;;9.73;5.97;;;3.20;92.50;;;;;;4880008;29;20059;-76
2021/12/27 06:54:34;;;;;;;10.30;5.87;;;3.10;92.40;;;;;;4879590;29;20068;-75
2021/12/27 06:57:00;;;;;;;8.70;5.83;;;3.10;92.80;;;;;;4879681;29;20522;-75
2021/12/27 06:59:27;;;;;;;7.63;5.30;;;3.10;92.90;;;;;;4879885;29;20102;-76
2021/12/27 07:01:53;;;;;;;8.17;5.07;;;3.10;93.10;;;;;;4879482;29;20069;-76
2021/12/27 07:04:19;;;;;;;9.67;6.07;;;3.10;93.30;;;;;;4878237;29;20064;-76
2021/12/27 07:06:44;;;;;;;6.87;5.60;;;3.10;93.10;;;;;;4879470;29;20112;-76
2021/12/27 07:09:10;;;;;;;6.93;5.27;;;3.10;93.00;;;;;;4879473;29;20044;-77
2021/12/27 07:11:36;;;;;;;10.23;5.20;;;3.10;93.00;;;;;;4879259;29;20037;-76
2021/12/27 07:14:02;;;;;;;9.60;5.63;;;3.20;93.10;;;;;;4878976;29;20387;-75
2021/12/27 07:16:28;;;;;;;7.87;4.83;;;3.20;93.00;;;;;;4879610;29;20505;-74
2021/12/27 07:18:54;;;;;;;7.33;4.70;;;3.30;93.20;;;;;;4879537;29;20033;-74
2021/12/27 07:21:20;;;;;;;5.97;4.13;;;3.50;92.90;;;;;;4879578;29;20047;-74
2021/12/27 07:23:46;;;;;;;7.93;4.53;;;3.50;92.50;;;;;;4878748;29;20032;-74
2021/12/27 07:26:12;;;;;;;5.70;4.40;;;3.70;92.40;;;;;;4878738;29;20037;-74
2021/12/27 07:28:38;;;;;;;5.73;4.47;;;3.80;92.20;;;;;;4879440;29;20036;-75
2021/12/27 07:31:03;;;;;;;7.77;4.97;;;3.90;92.00;;;;;;4879418;29;20036;-75
2021/12/27 07:33:29;;;;;;;6.67;4.70;;;4.00;91.60;;;;;;4879264;29;20058;-74
2021/12/27 07:35:55;;;;;;;6.17;3.87;;;4.00;91.50;;;;;;4878964;29;20500;-79
2021/12/27 07:38:21;;;;;;;6.37;4.50;;;4.00;91.50;;;;;;4879359;29;20036;-78
2021/12/27 07:40:46;;;;;;;6.67;4.60;;;4.10;91.40;;;;;;4877924;29;20029;-80
2021/12/27 07:43:12;;;;;;;9.67;5.57;;;4.20;91.50;;;;;;4877660;29;20036;-78
2021/12/27 07:45:38;;;;;;;9.83;5.67;;;4.20;91.60;;;;;;4876199;29;20390;-77
2021/12/27 07:48:09;;;;;;;10.80;6.47;;;4.30;91.60;;;;;;4889466;29;20497;-77
2021/12/27 07:50:35;;;;;;;19.10;12.27;;;4.40;91.60;;;;;;4876322;29;20025;-77
2021/12/27 07:53:02;;;;;;;10.40;5.30;;;4.50;91.40;;;;;;4877302;29;20112;-76
2021/12/27 07:55:29;;;;;;;10.53;6.07;;;4.70;91.10;;;;;;4877467;29;20109;-76
2021/12/27 07:57:56;;;;;;;12.50;7.50;;;4.90;90.40;;;;;;4875998;29;20116;-77
2021/12/27 08:00:22;;;;;;;10.70;7.40;;;5.00;90.00;;;;;;4877829;29;20478;-79
2021/12/27 08:02:48;;;;;;;8.30;6.37;;;5.20;89.70;;;;;;4877352;29;20390;-78
2021/12/27 08:05:14;;;;;;;18.50;8.63;;;5.20;90.00;;;;;;4877441;29;20021;-78
2021/12/27 08:07:42;;;;;;;11.47;7.90;;;5.20;90.10;;;;;;4878852;29;20028;-78
2021/12/27 08:10:09;;;;;;;9.73;6.53;;;5.30;90.10;;;;;;4875397;29;20033;-77
2021/12/27 08:12:35;;;;;;;10.13;6.30;;;5.40;90.40;;;;;;4877895;29;20036;-78
2021/12/27 08:15:01;;;;;;;8.40;6.07;;;5.40;90.40;;;;;;4878323;29;20172;-78
2021/12/27 08:17:27;;;;;;;11.80;6.37;;;5.50;90.00;;;;;;4896812;29;20115;-78
2021/12/27 08:19:52;;;;;;;8.90;6.10;;;5.60;89.40;;;;;;4897022;29;20029;-78
2021/12/27 08:22:18;;;;;;;11.90;6.03;;;5.60;89.10;;;;;;4881339;29;20048;-78
2021/12/27 08:24:43;;;;;;;11.93;7.27;;;5.70;89.20;;;;;;4881017;29;20025;-77
2021/12/27 08:27:09;;;;;;;11.60;7.90;;;5.70;89.80;;;;;;4882141;29;20029;-77
2021/12/27 08:29:36;;;;;;;15.83;9.53;;;5.80;90.10;;;;;;4881805;29;20025;-77
2021/12/27 08:32:02;;;;;;;17.60;9.70;;;5.80;89.80;;;;;;4881730;29;20035;-77
2021/12/27 08:34:29;;;;;;;14.60;10.07;;;5.80;89.70;;;;;;4881914;29;20081;-77
2021/12/27 08:36:55;;;;;;;13.67;9.80;;;5.90;89.10;;;;;;4881889;29;20025;-76
2021/12/27 08:39:21;;;;;;;13.70;9.77;;;5.90;89.00;;;;;;4907958;29;20112;-78
2021/12/27 08:41:46;;;;;;;14.37;9.57;;;5.90;89.20;;;;;;4881579;29;20112;-77
2021/12/27 08:44:12;;;;;;;13.40;8.80;;;5.90;89.10;;;;;;4884783;29;20067;-77
2021/12/27 08:46:40;;;;;;;13.60;9.07;;;5.90;89.30;;;;;;4900515;29;20103;-77
2021/12/27 08:49:06;;;;;;;14.27;8.70;;;5.90;89.20;;;;;;4900835;29;20028;-75
2021/12/27 08:51:32;;;;;;;13.10;8.93;;;5.90;88.70;;;;;;4900753;29;20028;-78
2021/12/27 08:53:58;;;;;;;12.00;8.07;;;6.00;88.70;;;;;;4900194;29;20032;-77
2021/12/27 08:56:24;;;;;;;11.37;7.40;;;6.00;90.00;;;;;;4900025;29;20046;-77
2021/12/27 08:58:50;;;;;;;9.87;6.97;;;6.00;89.40;;;;;;4901024;29;20032;-77
2021/12/27 09:01:16;;;;;;;12.60;7.83;;;6.10;88.80;;;;;;4918980;29;20547;-77
2021/12/27 09:03:41;;;;;;;14.27;8.80;;;6.10;88.30;;;;;;4918722;29;20118;-77
2021/12/27 09:06:08;;;;;;;16.23;10.13;;;6.10;88.20;;;;;;4918809;29;20035;-76
2021/12/27 09:08:34;;;;;;;16.13;10.43;;;6.20;88.50;;;;;;4919282;29;20107;-77
2021/12/27 09:10:59;;;;;;;17.97;12.07;;;6.20;88.30;;;;;;4919022;29;20107;-76
2021/12/27 09:13:30;;;;;;;16.30;11.40;;;6.30;90.50;;;;;;4919098;29;20164;-78
2021/12/27 09:15:56;;;;;;;13.60;9.60;;;6.30;90.40;;;;;;4917062;29;20485;-78
2021/12/27 09:18:22;;;;;;;14.43;9.67;;;6.40;89.50;;;;;;4918837;29;20488;-78
2021/12/27 09:20:48;;;;;;;13.67;8.60;;;6.40;89.20;;;;;;4904032;29;20033;-77
2021/12/27 09:23:14;;;;;;;14.43;8.20;;;6.40;88.80;;;;;;4899915;29;20044;-78
2021/12/27 09:25:39;;;;;;;11.63;7.90;;;6.50;88.70;;;;;;4899715;29;20033;-78
2021/12/27 09:28:05;;;;;;;10.07;6.83;;;6.60;88.30;;;;;;4899978;29;20064;-78
2021/12/27 09:30:31;;;;;;;15.53;7.13;;;6.60;88.20;;;;;;4908876;29;20103;-77
2021/12/27 09:32:57;;;;;;;9.53;6.27;;;6.70;88.00;;;;;;4918344;29;20032;-78
2021/12/27 09:35:23;;;;;;;12.37;6.27;;;6.70;88.20;;;;;;4918011;29;20036;-78
2021/12/27 09:37:48;;;;;;;7.13;5.87;;;6.80;88.00;;;;;;4918306;29;20107;-78
2021/12/27 09:40:14;;;;;;;10.30;5.97;;;6.80;88.30;;;;;;4918654;29;20063;-77
2021/12/27 09:42:40;;;;;;;9.20;6.13;;;6.90;88.00;;;;;;4918377;29;20405;-78
2021/12/27 09:45:07;;;;;;;8.00;5.07;;;7.00;88.10;;;;;;4918755;29;20078;-78
2021/12/27 09:47:34;;;;;;;6.33;4.00;;;7.10;87.50;;;;;;4918609;29;20132;-78
2021/12/27 09:50:01;;;;;;;7.27;3.80;;;7.10;87.10;;;;;;4918532;29;20032;-78
2021/12/27 09:52:26;;;;;;;5.63;3.67;;;7.20;86.80;;;;;;4918829;29;20032;-76
2021/12/27 09:54:52;;;;;;;5.23;3.50;;;7.20;86.40;;;;;;4918097;29;20040;-78
2021/12/27 09:57:18;;;;;;;10.30;3.67;;;7.30;86.40;;;;;;4918484;29;20035;-78
2021/12/27 09:59:44;;;;;;;4.80;2.60;;;7.30;85.80;;;;;;4918238;29;20067;-78
2021/12/27 10:02:11;;;;;;;3.67;2.50;;;7.40;85.10;;;;;;4917927;29;20032;-77
2021/12/27 10:04:37;;;;;;;4.13;2.33;;;7.50;85.00;;;;;;4917980;29;20016;-75
2021/12/27 10:07:03;;;;;;;4.30;2.70;;;7.50;84.70;;;;;;4917938;29;20034;-79
2021/12/27 10:09:31;;;;;;;3.53;2.50;;;7.50;84.80;;;;;;4917525;29;20071;-78
2021/12/27 10:11:57;;;;;;;3.77;2.30;;;7.50;85.20;;;;;;4917874;29;20036;-78
2021/12/27 10:14:25;;;;;;;5.27;3.03;;;7.50;84.60;;;;;;4917953;29;20039;-78
2021/12/27 10:17:10;;;;;;;7.40;5.37;;;7.60;84.50;;;;;;4918318;29;20119;-79
2021/12/27 10:19:36;;;;;;;9.93;6.70;;;7.60;84.50;;;;;;4918077;29;20024;-78
2021/12/27 10:22:09;;;;;;;9.87;7.03;;;7.70;86.00;;;;;;4917802;29;20106;-78
2021/12/27 10:24:35;;;;;;;12.15;8.48;;;7.80;85.40;;;;;;4917907;29;20493;-78
2021/12/27 10:27:02;;;;;;;12.47;7.00;;;7.90;84.90;;;;;;4917852;29;20028;-78
2021/12/27 10:29:36;;;;;;;9.27;6.00;;;8.00;85.10;;;;;;4917989;29;20028;-77
2021/12/27 10:32:09;;;;;;;7.27;5.00;;;8.10;85.30;;;;;;4917899;29;20031;-78
2021/12/27 10:34:43;;;;;;;7.97;5.80;;;8.20;84.60;;;;;;4917756;29;20434;-77
2021/12/27 10:37:20;;;;;;;9.93;5.53;;;8.20;84.30;;;;;;4915655;29;20032;-77
2021/12/27 10:40:01;;;;;;;10.50;5.27;;;8.30;84.20;;;;;;4917234;29;20021;-77
2021/12/27 10:42:29;;;;;;;7.93;4.57;;;8.40;83.90;;;;;;4931991;29;20180;-77
2021/12/27 10:44:59;;;;;;;8.33;4.03;;;8.50;83.50;;;;;;4917013;29;20481;-76
2021/12/27 10:47:24;;;;;;;6.73;4.23;;;8.50;82.10;;;;;;4916361;29;20115;-77
2021/12/27 10:49:51;;;;;;;9.90;3.87;;;8.50;81.90;;;;;;4917393;29;20059;-76
2021/12/27 10:52:16;;;;;;;5.63;3.80;;;8.50;82.10;;;;;;4917433;29;20437;-77
2021/12/27 10:54:42;;;;;;;4.80;3.40;;;8.50;82.10;;;;;;4917045;29;20056;-76
2021/12/27 10:57:08;;;;;;;5.23;3.10;;;8.60;82.00;;;;;;4917608;29;20052;-75
2021/12/27 10:59:34;;;;;;;4.73;3.10;;;8.60;81.40;;;;;;4917107;29;20545;-75
2021/12/27 11:02:17;;;;;;;5.47;4.03;;;8.50;81.20;;;;;;4917053;29;20401;-76
2021/12/27 11:04:43;;;;;;;6.33;3.37;;;8.60;81.30;;;;;;4917210;29;20028;-77
2021/12/27 11:07:08;;;;;;;5.13;3.63;;;8.60;81.60;;;;;;4917173;29;20092;-76
2021/12/27 11:09:35;;;;;;;5.43;3.83;;;8.60;81.40;;;;;;4917184;29;20154;-76
2021/12/27 11:12:02;;;;;;;8.13;4.30;;;8.60;81.40;;;;;;4917091;29;20036;-76
2021/12/27 11:14:28;;;;;;;6.07;4.07;;;8.60;81.70;;;;;;4917123;29;20024;-77
2021/12/27 11:16:54;;;;;;;5.73;3.20;;;8.70;81.30;;;;;;4917021;29;20063;-77
2021/12/27 11:19:20;;;;;;;5.50;3.37;;;8.70;80.70;;;;;;4917078;29;20080;-75
2021/12/27 11:21:48;;;;;;;6.90;4.07;;;8.70;80.30;;;;;;4917113;29;20073;-76
2021/12/27 11:24:15;;;;;;;7.10;4.57;;;8.70;80.60;;;;;;4912981;29;20087;-76
2021/12/27 11:26:43;;;;;;;6.90;4.57;;;8.70;80.90;;;;;;4916757;29;20043;-77
2021/12/27 11:29:13;;;;;;;6.13;3.87;;;8.80;81.10;;;;;;4915500;29;20059;-77
2021/12/27 11:31:42;;;;;;;4.13;3.10;;;8.80;81.70;;;;;;4916687;29;20028;-76
2021/12/27 11:34:12;;;;;;;5.73;2.60;;;8.80;81.40;;;;;;4916472;29;20024;-78
2021/12/27 11:36:42;;;;;;;5.03;3.10;;;8.80;80.70;;;;;;4916536;29;20088;-77
2021/12/27 11:39:36;;;;;;;3.83;2.70;;;8.80;80.30;;;;;;4916999;29;20393;-77
2021/12/27 11:42:08;;;;;;;4.13;2.90;;;8.80;80.60;;;;;;4916713;29;20441;-77
2021/12/27 11:44:35;;;;;;;6.63;2.88;;;8.90;80.80;;;;;;4916844;29;20505;-77
2021/12/27 11:47:02;;;;;;;5.67;3.80;;;8.90;80.70;;;;;;4916856;29;20384;-77
2021/12/27 11:50:02;;;;;;;6.90;5.07;;;8.90;80.40;;;;;;4916824;29;20028;-77
2021/12/27 11:52:39;;;;;;;9.00;6.07;;;8.90;81.20;;;;;;4916741;29;20028;-77
2021/12/27 11:55:22;;;;;;;9.47;5.60;;;8.90;80.90;;;;;;4916669;29;20411;-76
2021/12/27 11:57:53;;;;;;;5.00;3.58;;;8.90;80.80;;;;;;4916783;29;20497;-77
2021/12/27 12:00:21;;;;;;;5.13;3.80;;;8.90;80.60;;;;;;4920297;29;20068;-77
2021/12/27 12:02:52;;;;;;;6.50;3.83;;;8.90;80.10;;;;;;4920261;29;20051;-76
2021/12/27 12:05:56;;;;;;;7.13;4.33;;;8.90;80.40;;;;;;4920538;29;20029;-76
2021/12/27 12:08:28;;;;;;;10.73;6.57;;;8.90;79.60;;;;;;4899441;29;20509;-77
2021/12/27 12:11:06;;;;;;;11.73;8.97;;;8.90;79.70;;;;;;4899024;29;20498;-76
2021/12/27 12:13:39;;;;;;;14.43;10.03;;;8.90;80.10;;;;;;4910904;29;20040;-77
2021/12/27 12:16:14;;;;;;;14.90;9.70;;;8.90;80.30;;;;;;4882228;29;20025;-77
2021/12/27 12:18:44;;;;;;;14.43;9.93;;;8.90;81.00;;;;;;4882344;29;20100;-76
2021/12/27 12:21:31;;;;;;;12.53;8.50;;;8.90;81.20;;;;;;4880854;29;20065;-77
2021/12/27 12:24:16;;;;;;;10.93;7.93;;;8.90;82.10;;;;;;4882415;29;20065;-77
2021/12/27 12:26:51;;;;;;;10.97;7.60;;;8.80;81.80;;;;;;4882139;29;20100;-77
2021/12/27 12:29:16;;;;;;;8.90;7.07;;;8.80;81.70;;;;;;4878590;29;20059;-75
2021/12/27 12:31:42;;;;;;;13.67;7.53;;;8.80;81.70;;;;;;4878441;29;20751;-76
2021/12/27 12:34:13;;;;;;;11.67;7.73;;;8.80;81.90;;;;;;4879473;29;20131;-76
2021/12/27 12:36:54;;;;;;;11.57;8.03;;;8.80;81.90;;;;;;4881883;29;20029;-75
2021/12/27 12:39:22;;;;;;;9.03;5.90;;;8.80;82.30;;;;;;4882154;29;20037;-76
2021/12/27 12:41:48;;;;;;;7.40;4.33;;;8.80;82.50;;;;;;4882183;29;20052;-76
2021/12/27 12:44:15;;;;;;;6.90;3.90;;;8.80;82.60;;;;;;4881718;29;20459;-76
2021/12/27 12:46:46;;;;;;;5.53;3.47;;;8.80;82.30;;;;;;4880523;29;20061;-75
2021/12/27 12:49:22;;;;;;;5.37;3.47;;;8.80;82.60;;;;;;4881770;29;20100;-78
2021/12/27 12:51:52;;;;;;;5.80;3.33;;;8.80;82.20;;;;;;4881628;29;20073;-76
2021/12/27 12:54:22;;;;;;;9.20;3.40;;;8.80;82.10;;;;;;4881616;29;20061;-76
2021/12/27 12:56:52;;;;;;;7.00;4.40;;;8.80;83.00;;;;;;4881764;29;20120;-78